createdAt,value
2019-02-02T00:01:12.477Z,6.50
2019-02-02T00:03:41.731Z,7.80
2019-02-02T00:06:11.007Z,7.03
2019-02-02T00:08:39.909Z,6.33
2019-02-02T00:11:09.058Z,6.10
2019-02-02T00:13:37.891Z,6.17
2019-02-02T00:16:07.212Z,6.67
2019-02-02T00:18:36.463Z,6.33
2019-02-02T00:21:05.919Z,7.25
2019-02-02T00:23:34.926Z,6.47
2019-02-02T00:26:04.444Z,5.70
2019-02-02T00:28:33.459Z,5.95
2019-02-02T00:31:03.731Z,5.25
2019-02-02T00:33:33.010Z,5.87
2019-02-02T00:36:02.128Z,6.03
2019-02-02T00:38:31.162Z,6.58
2019-02-02T00:41:00.308Z,6.53
2019-02-02T00:43:29.561Z,5.60
2019-02-02T00:45:58.541Z,5.90
2019-02-02T00:48:27.563Z,6.03
2019-02-02T00:50:56.631Z,6.27
2019-02-02T00:53:25.612Z,5.92
2019-02-02T00:55:54.518Z,6.27
2019-02-02T00:58:23.547Z,6.03
2019-02-02T01:00:52.531Z,5.35
2019-02-02T01:03:21.868Z,5.28
2019-02-02T01:05:50.881Z,5.03
2019-02-02T01:08:20.238Z,5.00
2019-02-02T01:10:49.275Z,5.43
2019-02-02T01:13:18.262Z,5.70
2019-02-02T01:15:47.248Z,5.20
2019-02-02T01:18:16.179Z,5.53
2019-02-02T01:20:45.236Z,4.87
2019-02-02T01:23:14.147Z,4.85
2019-02-02T01:25:43.391Z,5.53
2019-02-02T01:28:12.628Z,4.72
2019-02-02T01:30:41.629Z,5.03
2019-02-02T01:33:10.650Z,5.20
2019-02-02T01:35:39.590Z,5.17
2019-02-02T01:38:08.595Z,4.87
2019-02-02T01:40:37.584Z,4.83
2019-02-02T01:43:06.618Z,4.53
2019-02-02T01:45:35.708Z,5.60
2019-02-02T01:48:05.143Z,4.87
2019-02-02T01:50:34.183Z,5.60
2019-02-02T01:53:03.011Z,4.78
2019-02-02T01:55:31.957Z,4.93
2019-02-02T01:58:00.926Z,4.65
2019-02-02T02:00:31.379Z,5.70
2019-02-02T02:03:00.437Z,4.95
2019-02-02T02:05:29.739Z,5.00
2019-02-02T02:07:58.783Z,4.80
2019-02-02T02:10:27.822Z,5.37
2019-02-02T02:12:57.119Z,5.53
2019-02-02T02:15:26.270Z,4.90
2019-02-02T02:17:55.260Z,4.90
2019-02-02T02:20:24.613Z,4.15
2019-02-02T02:22:53.620Z,4.87
2019-02-02T02:25:22.585Z,4.05
2019-02-02T02:27:51.638Z,4.45
2019-02-02T02:30:22.131Z,4.80
2019-02-02T02:32:53.003Z,4.12
2019-02-02T02:35:22.082Z,4.35
2019-02-02T02:37:51.426Z,4.22
2019-02-02T02:40:21.848Z,4.35
2019-02-02T02:42:51.126Z,4.30
2019-02-02T02:45:20.149Z,4.70
2019-02-02T02:47:49.782Z,4.47
2019-02-02T02:50:19.504Z,4.72
2019-02-02T02:52:48.500Z,4.45
2019-02-02T02:55:17.822Z,4.72
2019-02-02T02:57:47.018Z,4.12
2019-02-02T03:00:20.941Z,4.10
2019-02-02T03:02:49.868Z,4.17
2019-02-02T03:05:19.378Z,4.62
2019-02-02T03:07:49.829Z,5.00
2019-02-02T03:10:20.011Z,5.30
2019-02-02T03:12:50.096Z,5.33
2019-02-02T03:15:19.139Z,5.30
2019-02-02T03:17:48.336Z,5.03
2019-02-02T03:20:17.430Z,4.97
2019-02-02T03:22:46.949Z,5.45
2019-02-02T03:25:18.438Z,5.58
2019-02-02T03:27:47.549Z,5.05
2019-02-02T03:30:18.155Z,5.40
2019-02-02T03:32:47.508Z,5.15
2019-02-02T03:35:18.193Z,5.50
2019-02-02T03:37:47.278Z,5.20
2019-02-02T03:40:18.078Z,4.60
2019-02-02T03:42:47.084Z,4.70
2019-02-02T03:45:17.896Z,5.30
2019-02-02T03:47:47.248Z,4.87
2019-02-02T03:50:16.267Z,4.87
2019-02-02T03:52:46.244Z,5.20
2019-02-02T03:55:15.802Z,5.28
2019-02-02T03:57:45.137Z,4.53
2019-02-02T04:00:16.527Z,5.28
2019-02-02T04:02:45.937Z,4.67
2019-02-02T04:05:17.318Z,4.92
2019-02-02T04:07:46.345Z,4.92
2019-02-02T04:10:15.866Z,4.87
2019-02-02T04:12:44.860Z,4.62
2019-02-02T04:15:14.340Z,4.90
2019-02-02T04:17:43.330Z,4.50
2019-02-02T04:20:14.890Z,4.50
2019-02-02T04:22:44.212Z,4.83
2019-02-02T04:25:13.895Z,5.33
2019-02-02T04:27:42.882Z,4.25
2019-02-02T04:30:15.191Z,4.67
2019-02-02T04:32:44.203Z,4.28
2019-02-02T04:35:13.304Z,4.67
2019-02-02T04:37:42.326Z,4.55
2019-02-02T04:40:12.126Z,4.47
2019-02-02T04:42:41.299Z,4.60
2019-02-02T04:45:11.466Z,4.40
2019-02-02T04:47:40.514Z,3.55
2019-02-02T04:50:11.693Z,4.90
2019-02-02T04:52:40.695Z,5.35
2019-02-02T04:55:10.163Z,4.22
2019-02-02T04:57:39.532Z,4.33
2019-02-02T05:00:11.638Z,4.42
2019-02-02T05:02:40.551Z,4.60
2019-02-02T05:05:11.638Z,4.90
2019-02-02T05:07:40.621Z,5.25
2019-02-02T05:10:12.353Z,5.40
2019-02-02T05:12:41.278Z,4.58
2019-02-02T05:15:10.599Z,4.60
2019-02-02T05:17:39.945Z,5.33
2019-02-02T05:20:10.208Z,4.67
2019-02-02T05:22:39.124Z,5.17
2019-02-02T05:25:08.751Z,5.20
2019-02-02T05:27:37.739Z,4.95
2019-02-02T05:30:11.355Z,5.62
2019-02-02T05:32:40.366Z,4.58
2019-02-02T05:35:09.788Z,5.22
2019-02-02T05:37:39.280Z,5.15
2019-02-02T05:40:10.592Z,4.87
2019-02-02T05:42:39.584Z,5.22
2019-02-02T05:45:10.478Z,4.97
2019-02-02T05:47:39.513Z,5.20
2019-02-02T05:50:10.216Z,4.92
2019-02-02T05:52:39.718Z,4.60
2019-02-02T05:55:10.108Z,5.00
2019-02-02T05:57:39.114Z,4.50
2019-02-02T06:00:16.321Z,4.90
2019-02-02T06:02:45.270Z,4.95
2019-02-02T06:05:14.554Z,4.37
2019-02-02T06:07:43.707Z,5.42
2019-02-02T06:10:14.074Z,4.58
2019-02-02T06:12:43.142Z,5.47
2019-02-02T06:15:14.323Z,5.37
2019-02-02T06:17:43.299Z,5.58
2019-02-02T06:20:12.484Z,5.50
2019-02-02T06:22:41.472Z,5.37
2019-02-02T06:25:11.424Z,5.20
2019-02-02T06:27:40.461Z,5.53
2019-02-02T06:30:12.733Z,5.58
2019-02-02T06:32:42.122Z,5.78
2019-02-02T06:35:12.430Z,5.33
2019-02-02T06:37:41.583Z,6.03
2019-02-02T06:40:11.403Z,5.47
2019-02-02T06:42:40.469Z,5.90
2019-02-02T06:45:12.794Z,5.10
2019-02-02T06:47:41.885Z,5.15
2019-02-02T06:50:13.232Z,5.55
2019-02-02T06:52:42.317Z,5.72
2019-02-02T06:55:12.064Z,5.70
2019-02-02T06:57:41.115Z,5.50
2019-02-02T07:00:16.166Z,5.42
2019-02-02T07:02:44.176Z,5.42
2019-02-02T07:05:13.170Z,5.17
2019-02-02T07:07:42.313Z,5.50
2019-02-02T07:10:14.390Z,4.55
2019-02-02T07:12:43.379Z,5.47
2019-02-02T07:15:13.394Z,5.67
2019-02-02T07:17:42.375Z,5.83
2019-02-02T07:20:12.387Z,5.80
2019-02-02T07:22:41.415Z,5.40
2019-02-02T07:25:10.600Z,5.37
2019-02-02T07:27:39.598Z,5.12
2019-02-02T07:30:28.158Z,4.65
2019-02-02T07:32:50.458Z,5.90
2019-02-02T07:35:19.394Z,6.00
2019-02-02T07:37:48.473Z,5.05
2019-02-02T07:40:17.649Z,6.00
2019-02-02T07:42:46.863Z,5.35
2019-02-02T07:45:18.356Z,5.08
2019-02-02T07:47:47.284Z,5.03
2019-02-02T07:50:16.507Z,5.37
2019-02-02T07:52:45.918Z,6.00
2019-02-02T07:55:16.276Z,5.25
2019-02-02T07:57:45.687Z,5.15
2019-02-02T08:00:23.850Z,5.00
2019-02-02T08:02:52.847Z,4.92
2019-02-02T08:05:21.775Z,6.20
2019-02-02T08:07:51.208Z,5.90
2019-02-02T08:10:20.168Z,6.85
2019-02-02T08:12:49.159Z,5.78
2019-02-02T08:15:20.755Z,5.80
2019-02-02T08:17:49.698Z,5.35
2019-02-02T08:20:18.628Z,5.25
2019-02-02T08:22:47.755Z,5.17
2019-02-02T08:25:16.811Z,5.20
2019-02-02T08:27:45.914Z,4.95
2019-02-02T08:30:17.403Z,5.40
2019-02-02T08:32:46.473Z,5.50
2019-02-02T08:35:15.766Z,5.20
2019-02-02T08:37:44.728Z,4.87
2019-02-02T08:40:14.910Z,4.85
2019-02-02T08:42:43.929Z,4.47
2019-02-02T08:45:13.892Z,4.47
2019-02-02T08:47:42.854Z,4.85
2019-02-02T08:50:29.294Z,4.40
2019-02-02T08:52:59.865Z,4.97
2019-02-02T08:55:28.887Z,5.43
2019-02-02T08:57:58.328Z,4.72
2019-02-02T09:00:27.462Z,5.10
2019-02-02T09:02:56.374Z,5.40
2019-02-02T09:05:25.695Z,4.72
2019-02-02T09:07:54.863Z,5.33
2019-02-02T09:10:25.427Z,5.47
2019-02-02T09:12:54.810Z,5.30
2019-02-02T09:15:25.334Z,5.08
2019-02-02T09:17:54.346Z,6.08
2019-02-02T09:20:23.624Z,4.92
2019-02-02T09:23:04.080Z,5.28
2019-02-02T09:25:24.392Z,5.30
2019-02-02T09:27:53.418Z,5.33
2019-02-02T09:30:30.490Z,4.70
2019-02-02T09:32:59.466Z,5.28
2019-02-02T09:35:28.463Z,5.40
2019-02-02T09:37:57.414Z,6.03
2019-02-02T09:40:26.525Z,5.30
2019-02-02T09:42:55.552Z,5.22
2019-02-02T09:45:24.762Z,4.78
2019-02-02T09:47:53.858Z,5.15
2019-02-02T09:50:23.872Z,5.17
2019-02-02T09:52:52.947Z,5.70
2019-02-02T09:55:23.143Z,6.05
2019-02-02T09:57:55.046Z,6.37
2019-02-02T10:00:26.792Z,6.47
2019-02-02T10:02:56.007Z,5.70
2019-02-02T10:05:25.287Z,5.80
2019-02-02T10:07:54.271Z,5.55
2019-02-02T10:10:24.853Z,5.40
2019-02-02T10:12:54.551Z,5.00
2019-02-02T10:15:23.593Z,6.10
2019-02-02T10:17:52.651Z,5.70
2019-02-02T10:20:23.319Z,5.62
2019-02-02T10:22:52.248Z,5.90
2019-02-02T10:25:23.295Z,5.55
2019-02-02T10:27:52.347Z,4.97
2019-02-02T10:30:29.883Z,6.55
2019-02-02T10:32:58.789Z,6.17
2019-02-02T10:35:27.793Z,5.90
2019-02-02T10:37:56.848Z,5.87
2019-02-02T10:40:25.852Z,5.87
2019-02-02T10:42:55.111Z,5.20
2019-02-02T10:45:24.108Z,6.47
2019-02-02T10:47:53.109Z,6.03
2019-02-02T10:50:22.399Z,6.20
2019-02-02T10:52:51.631Z,6.72
2019-02-02T10:55:20.755Z,5.40
2019-02-02T10:57:49.734Z,4.97
2019-02-02T11:00:23.846Z,4.90
2019-02-02T11:02:52.754Z,4.12
2019-02-02T11:05:22.024Z,4.42
2019-02-02T11:07:54.190Z,4.85
2019-02-02T11:10:23.765Z,5.55
2019-02-02T11:12:52.850Z,5.05
2019-02-02T11:15:22.008Z,4.70
2019-02-02T11:17:51.282Z,5.28
2019-02-02T11:20:22.878Z,5.35
2019-02-02T11:22:52.425Z,4.62
2019-02-02T11:25:21.507Z,4.85
2019-02-02T11:27:50.571Z,5.60
2019-02-02T11:30:20.091Z,5.00
2019-02-02T11:32:49.526Z,5.33
2019-02-02T11:35:18.529Z,5.00
2019-02-02T11:37:47.540Z,4.40
2019-02-02T11:40:24.984Z,4.12
2019-02-02T11:42:54.359Z,3.95
2019-02-02T11:45:23.386Z,4.67
2019-02-02T11:47:52.478Z,4.90
2019-02-02T11:50:22.037Z,4.05
2019-02-02T11:52:51.322Z,4.67
2019-02-02T11:55:20.621Z,4.60
2019-02-02T11:57:50.156Z,5.08
2019-02-02T12:00:24.387Z,5.10
2019-02-02T12:02:53.770Z,6.75
2019-02-02T12:05:23.539Z,6.22
2019-02-02T12:07:52.556Z,5.78
2019-02-02T12:10:22.962Z,5.42
2019-02-02T12:12:52.014Z,4.80
2019-02-02T12:15:20.957Z,5.40
2019-02-02T12:17:50.074Z,4.87
2019-02-02T12:20:19.382Z,6.35
2019-02-02T12:22:48.758Z,6.53
2019-02-02T12:25:18.111Z,6.83
2019-02-02T12:27:47.234Z,8.03
2019-02-02T12:30:18.581Z,8.00
2019-02-02T12:32:47.464Z,8.23
2019-02-02T12:35:18.920Z,8.00
2019-02-02T12:37:47.948Z,9.28
2019-02-02T12:40:17.204Z,9.23
2019-02-02T12:42:46.581Z,8.53
2019-02-02T12:45:18.382Z,8.33
2019-02-02T12:47:47.434Z,7.53
2019-02-02T12:50:16.466Z,8.28
2019-02-02T12:52:45.630Z,8.13
2019-02-02T12:55:14.618Z,8.98
2019-02-02T12:57:46.223Z,7.80
2019-02-02T13:00:17.203Z,8.35
2019-02-02T13:02:46.233Z,8.55
2019-02-02T13:05:16.830Z,8.28
2019-02-02T13:07:45.847Z,8.80
2019-02-02T13:10:19.847Z,8.55
2019-02-02T13:12:48.949Z,7.90
2019-02-02T13:15:18.181Z,7.22
2019-02-02T13:17:47.334Z,9.35
2019-02-02T13:20:16.374Z,7.72
2019-02-02T13:22:45.974Z,7.30
2019-02-02T13:25:16.613Z,9.03
2019-02-02T13:27:45.587Z,8.55
2019-02-02T13:30:18.246Z,7.60
2019-02-02T13:32:49.961Z,7.03
2019-02-02T13:35:18.120Z,7.10
2019-02-02T13:37:47.210Z,7.62
2019-02-02T13:40:18.110Z,7.62
2019-02-02T13:42:47.164Z,7.78
2019-02-02T13:45:17.122Z,8.38
2019-02-02T13:47:46.256Z,8.83
2019-02-02T13:50:16.074Z,7.92
2019-02-02T13:52:45.634Z,10.03
2019-02-02T13:55:15.123Z,8.48
2019-02-02T13:57:44.226Z,8.80
2019-02-02T14:00:22.030Z,9.15
2019-02-02T14:03:02.217Z,9.00
2019-02-02T14:05:22.080Z,9.40
2019-02-02T14:07:51.433Z,7.90
2019-02-02T14:10:22.557Z,9.20
2019-02-02T14:12:51.838Z,9.55
2019-02-02T14:15:20.859Z,9.65
2019-02-02T14:17:49.839Z,9.88
2019-02-02T14:22:46.647Z,9.03
2019-02-02T14:25:16.434Z,9.23
2019-02-02T14:27:45.421Z,8.25
2019-02-02T14:30:22.700Z,8.50
2019-02-02T14:32:54.689Z,6.95
2019-02-02T14:35:23.798Z,8.45
2019-02-02T14:37:53.051Z,7.60
2019-02-02T14:40:22.391Z,7.85
2019-02-02T14:42:51.741Z,8.23
2019-02-02T14:45:21.946Z,7.42
2019-02-02T14:47:51.067Z,7.40
2019-02-02T14:50:21.396Z,7.17
2019-02-02T14:52:51.203Z,7.85
2019-02-02T14:55:22.701Z,8.85
2019-02-02T14:57:51.746Z,10.30
2019-02-02T15:00:22.537Z,10.40
2019-02-02T15:02:51.675Z,11.10
2019-02-02T15:05:21.814Z,9.80
2019-02-02T15:07:51.341Z,10.70
2019-02-02T15:10:21.324Z,11.50
2019-02-02T15:12:50.362Z,13.00
2019-02-02T15:15:19.320Z,12.80
2019-02-02T15:17:48.319Z,12.63
2019-02-02T15:20:22.035Z,13.28
2019-02-02T15:22:50.798Z,12.65
2019-02-02T15:25:19.754Z,13.80
2019-02-02T15:27:48.680Z,12.35
2019-02-02T15:30:18.885Z,13.58
2019-02-02T15:32:47.885Z,13.28
2019-02-02T15:35:17.205Z,13.98
2019-02-02T15:37:46.317Z,12.07
2019-02-02T15:40:16.651Z,12.43
2019-02-02T15:42:45.838Z,13.35
2019-02-02T15:45:16.706Z,11.78
2019-02-02T15:47:45.596Z,13.85
2019-02-02T15:50:15.444Z,12.73
2019-02-02T15:52:44.880Z,12.68
2019-02-02T15:55:18.586Z,13.30
2019-02-02T15:57:47.667Z,11.90
2019-02-02T16:00:19.711Z,12.63
2019-02-02T16:02:48.702Z,12.10
2019-02-02T16:05:18.453Z,11.73
2019-02-02T16:07:48.064Z,12.30
2019-02-02T16:10:19.470Z,11.63
2019-02-02T16:12:48.724Z,10.32
2019-02-02T16:15:17.829Z,11.48
2019-02-02T16:17:46.862Z,11.60
2019-02-02T16:20:21.314Z,12.15
2019-02-02T16:22:51.013Z,11.35
2019-02-02T16:25:22.925Z,10.98
2019-02-02T16:27:51.960Z,11.18
2019-02-02T16:30:22.929Z,11.60
2019-02-02T16:32:52.199Z,12.80
2019-02-02T16:35:21.226Z,12.50
2019-02-02T16:37:50.130Z,11.40
2019-02-02T16:40:20.989Z,11.57
2019-02-02T16:42:53.034Z,12.37
2019-02-02T16:45:22.928Z,10.88
2019-02-02T16:47:52.474Z,11.50
2019-02-02T16:50:22.491Z,13.75
2019-02-02T16:52:51.524Z,11.55
2019-02-02T16:55:20.875Z,12.03
2019-02-02T16:57:50.128Z,11.25
2019-02-02T17:00:21.467Z,10.30
2019-02-02T17:02:50.413Z,10.78
2019-02-02T17:05:19.475Z,9.95
2019-02-02T17:07:48.824Z,10.30
2019-02-02T17:10:20.187Z,9.45
2019-02-02T17:12:49.212Z,10.88
2019-02-02T17:15:18.729Z,10.53
2019-02-02T17:17:47.684Z,10.98
2019-02-02T17:20:19.048Z,11.10
2019-02-02T17:22:47.967Z,11.15
2019-02-02T17:25:18.042Z,11.95
2019-02-02T17:27:47.443Z,11.63
2019-02-02T17:30:18.371Z,12.15
2019-02-02T17:32:47.819Z,11.55
2019-02-02T17:35:16.880Z,12.53
2019-02-02T17:37:45.903Z,11.53
2019-02-02T17:40:17.514Z,12.20
2019-02-02T17:42:46.486Z,10.65
2019-02-02T17:45:16.895Z,11.78
2019-02-02T17:47:45.952Z,12.58
2019-02-02T17:50:17.039Z,12.82
2019-02-02T17:52:46.034Z,13.22
2019-02-02T17:55:15.319Z,12.85
2019-02-02T17:57:44.422Z,12.50
2019-02-02T18:00:16.490Z,13.03
2019-02-02T18:02:45.470Z,11.22
2019-02-02T18:05:14.494Z,12.28
2019-02-02T18:07:43.560Z,12.18
2019-02-02T18:10:13.794Z,12.33
2019-02-02T18:12:42.963Z,11.88
2019-02-02T18:15:13.465Z,13.08
2019-02-02T18:17:42.499Z,12.90
2019-02-02T18:20:12.783Z,12.73
2019-02-02T18:22:41.795Z,12.35
2019-02-02T18:25:12.055Z,12.68
2019-02-02T18:27:40.998Z,12.93
2019-02-02T18:30:16.130Z,12.58
2019-02-02T18:32:45.015Z,13.28
2019-02-02T18:35:14.788Z,13.35
2019-02-02T18:37:44.137Z,13.15
2019-02-02T18:40:14.634Z,13.20
2019-02-02T18:42:43.596Z,14.25
2019-02-02T18:45:15.343Z,15.15
2019-02-02T18:47:44.362Z,14.35
2019-02-02T18:50:14.659Z,14.33
2019-02-02T18:52:43.887Z,15.23
2019-02-02T18:55:30.867Z,14.78
2019-02-02T18:57:59.794Z,14.30
2019-02-02T19:00:28.802Z,14.90
2019-02-02T19:02:57.867Z,14.75
2019-02-02T19:05:28.978Z,14.13
2019-02-02T19:07:57.489Z,14.70
2019-02-02T19:10:29.320Z,14.47
2019-02-02T19:12:58.238Z,15.25
2019-02-02T19:15:27.248Z,14.07
2019-02-02T19:17:56.250Z,15.35
2019-02-02T19:20:25.269Z,14.90
2019-02-02T19:22:57.055Z,14.87
2019-02-02T19:25:24.837Z,15.20
2019-02-02T19:27:54.006Z,15.65
2019-02-02T19:30:28.375Z,16.50
2019-02-02T19:32:57.427Z,16.52
2019-02-02T19:35:26.500Z,17.77
2019-02-02T19:37:55.553Z,17.75
2019-02-02T19:40:24.901Z,16.57
2019-02-02T19:42:53.890Z,16.75
2019-02-02T19:45:24.334Z,17.60
2019-02-02T19:47:53.781Z,17.42
2019-02-02T19:50:24.923Z,16.90
2019-02-02T19:52:54.636Z,17.32
2019-02-02T19:55:23.678Z,17.35
2019-02-02T19:57:52.874Z,16.75
2019-02-02T20:00:24.301Z,16.55
2019-02-02T20:02:54.059Z,17.37
2019-02-02T20:05:28.651Z,17.27
2019-02-02T20:07:53.851Z,17.02
2019-02-02T20:10:23.247Z,17.02
2019-02-02T20:12:52.266Z,16.75
2019-02-02T20:15:22.965Z,16.17
2019-02-02T20:17:52.314Z,15.80
2019-02-02T20:20:22.992Z,15.80
2019-02-02T20:22:52.048Z,16.52
2019-02-02T20:25:21.124Z,15.90
2019-02-02T20:27:50.398Z,15.68
2019-02-02T20:30:21.270Z,16.73
2019-02-02T20:32:50.277Z,15.45
2019-02-02T20:35:19.449Z,17.07
2019-02-02T20:37:48.343Z,16.32
2019-02-02T20:40:19.222Z,15.93
2019-02-02T20:42:48.347Z,16.20
2019-02-02T20:45:22.681Z,16.00
2019-02-02T20:47:51.637Z,16.17
2019-02-02T20:50:20.550Z,14.95
2019-02-02T20:52:49.694Z,16.02
2019-02-02T20:55:24.301Z,17.87
2019-02-02T20:57:53.779Z,15.53
2019-02-02T21:00:24.659Z,16.05
2019-02-02T21:02:53.742Z,15.98
2019-02-02T21:05:23.142Z,15.78
2019-02-02T21:07:52.457Z,15.38
2019-02-02T21:10:22.672Z,15.83
2019-02-02T21:12:51.723Z,16.67
2019-02-02T21:15:21.039Z,16.73
2019-02-02T21:17:50.588Z,16.05
2019-02-02T21:20:21.773Z,14.75
2019-02-02T21:22:51.447Z,15.72
2019-02-02T21:25:20.490Z,16.27
2019-02-02T21:27:49.671Z,16.75
2019-02-02T21:30:23.698Z,17.20
2019-02-02T21:32:52.720Z,16.65
2019-02-02T21:35:22.650Z,17.30
2019-02-02T21:37:51.561Z,17.55
2019-02-02T21:40:22.986Z,17.48
2019-02-02T21:42:52.050Z,18.37
2019-02-02T21:45:21.096Z,18.90
2019-02-02T21:47:50.117Z,17.73
2019-02-02T21:50:20.676Z,18.95
2019-02-02T21:52:50.007Z,19.12
2019-02-02T21:55:20.916Z,18.50
2019-02-02T21:57:49.816Z,20.02
2019-02-02T22:00:26.863Z,20.70
2019-02-02T22:02:55.845Z,21.17
2019-02-02T22:05:24.943Z,21.37
2019-02-02T22:07:54.426Z,22.60
2019-02-02T22:10:23.423Z,23.25
2019-02-02T22:12:53.171Z,25.10
2019-02-02T22:15:23.382Z,24.43
2019-02-02T22:17:52.850Z,24.67
2019-02-02T22:20:22.179Z,24.10
2019-02-02T22:22:51.158Z,22.98
2019-02-02T22:25:22.172Z,25.08
2019-02-02T22:27:51.188Z,25.23
2019-02-02T22:30:22.399Z,25.12
2019-02-02T22:32:51.559Z,24.77
2019-02-02T22:35:20.365Z,25.90
2019-02-02T22:37:49.416Z,25.20
2019-02-02T22:40:20.265Z,23.87
2019-02-02T22:42:49.286Z,24.47
2019-02-02T22:45:19.131Z,25.08
2019-02-02T22:47:48.286Z,23.15
2019-02-02T22:50:19.296Z,24.47
2019-02-02T22:52:49.010Z,25.50
2019-02-02T22:55:18.877Z,25.55
2019-02-02T22:57:47.984Z,24.72
2019-02-02T23:00:29.874Z,23.85
2019-02-02T23:02:59.548Z,24.77
2019-02-02T23:05:47.618Z,24.30
2019-02-02T23:08:44.728Z,23.42
2019-02-02T23:11:45.740Z,25.12
2019-02-02T23:14:40.937Z,23.62
2019-02-02T23:17:09.900Z,23.00
2019-02-02T23:19:38.859Z,23.22
2019-02-02T23:22:08.302Z,24.47
2019-02-02T23:24:37.387Z,23.75
2019-02-02T23:27:06.358Z,24.87
2019-02-02T23:29:35.751Z,23.75
2019-02-02T23:32:04.795Z,23.50
2019-02-02T23:34:33.970Z,21.73
2019-02-02T23:37:03.186Z,22.43
2019-02-02T23:39:32.274Z,21.75
2019-02-02T23:42:01.143Z,21.77
2019-02-02T23:44:30.006Z,21.52
2019-02-02T23:46:59.087Z,20.93
2019-02-02T23:49:28.026Z,24.10
2019-02-02T23:51:57.577Z,22.07
2019-02-02T23:54:26.481Z,22.17
2019-02-02T23:56:55.363Z,23.47
2019-02-02T23:59:24.783Z,23.02
